sensor_id;sensor_type;location;lat;lon;timestamp;pressure;altitude;pressure_sealevel;temperature;humidity
46778;BME280;32536;47.128;8.746;2023-04-09T00:00:10;92020.53;;;9.05;51.29
46778;BME280;32536;47.128;8.746;2023-04-09T00:02:38;92012.88;;;9.03;51.66
46778;BME280;32536;47.128;8.746;2023-04-09T00:05:05;92002.97;;;9.04;51.73
46778;BME280;32536;47.128;8.746;2023-04-09T00:07:32;92007.53;;;9.03;51.41
46778;BME280;32536;47.128;8.746;2023-04-09T00:09:59;92007.19;;;9.01;51.56
46778;BME280;32536;47.128;8.746;2023-04-09T00:12:26;92007.19;;;9.01;51.44
46778;BME280;32536;47.128;8.746;2023-04-09T00:14:55;91999.91;;;9.02;51.43
46778;BME280;32536;47.128;8.746;2023-04-09T00:17:22;92001.44;;;9.03;51.76
46778;BME280;32536;47.128;8.746;2023-04-09T00:19:49;92006.03;;;8.95;51.81
46778;BME280;32536;47.128;8.746;2023-04-09T00:22:15;91997.25;;;8.91;51.26
46778;BME280;32536;47.128;8.746;2023-04-09T00:24:42;91996.50;;;8.90;51.08
46778;BME280;32536;47.128;8.746;2023-04-09T00:27:09;91996.13;;;8.92;51.23
46778;BME280;32536;47.128;8.746;2023-04-09T00:29:35;92003.00;;;8.93;51.43
46778;BME280;32536;47.128;8.746;2023-04-09T00:32:02;91988.50;;;8.94;51.15
46778;BME280;32536;47.128;8.746;2023-04-09T00:34:29;91985.81;;;8.94;51.25
46778;BME280;32536;47.128;8.746;2023-04-09T00:36:56;91985.03;;;8.90;50.93
46778;BME280;32536;47.128;8.746;2023-04-09T00:39:22;91978.19;;;8.85;51.38
46778;BME280;32536;47.128;8.746;2023-04-09T00:41:49;91989.28;;;8.76;51.56
46778;BME280;32536;47.128;8.746;2023-04-09T00:44:20;91989.28;;;8.69;51.31
46778;BME280;32536;47.128;8.746;2023-04-09T00:46:47;91992.72;;;8.59;50.97
46778;BME280;32536;47.128;8.746;2023-04-09T00:49:14;91993.50;;;8.52;51.17
46778;BME280;32536;47.128;8.746;2023-04-09T00:51:41;91992.72;;;8.52;51.33
46778;BME280;32536;47.128;8.746;2023-04-09T00:54:08;91993.50;;;8.48;51.06
46778;BME280;32536;47.128;8.746;2023-04-09T00:56:37;91996.50;;;8.40;51.68
46778;BME280;32536;47.128;8.746;2023-04-09T00:59:03;91987.72;;;8.28;51.54
46778;BME280;32536;47.128;8.746;2023-04-09T01:01:30;91991.94;;;8.22;51.53
46778;BME280;32536;47.128;8.746;2023-04-09T01:03:57;91980.84;;;8.20;51.79
46778;BME280;32536;47.128;8.746;2023-04-09T01:06:28;91987.72;;;8.17;51.81
46778;BME280;32536;47.128;8.746;2023-04-09T01:09:18;91979.72;;;8.14;52.63
46778;BME280;32536;47.128;8.746;2023-04-09T01:15:05;91974.00;;;8.15;52.38
46778;BME280;32536;47.128;8.746;2023-04-09T01:20:34;91985.03;;;8.07;52.53
46778;BME280;32536;47.128;8.746;2023-04-09T01:25:42;91969.78;;;8.00;51.77
46778;BME280;32536;47.128;8.746;2023-04-09T01:28:20;91980.06;;;7.94;51.69
46778;BME280;32536;47.128;8.746;2023-04-09T01:30:57;91968.25;;;7.88;52.29
46778;BME280;32536;47.128;8.746;2023-04-09T01:33:28;91976.22;;;7.81;52.08
46778;BME280;32536;47.128;8.746;2023-04-09T01:35:56;91970.88;;;7.77;51.52
46778;BME280;32536;47.128;8.746;2023-04-09T01:38:25;91970.50;;;7.72;51.54
46778;BME280;32536;47.128;8.746;2023-04-09T01:40:54;91973.53;;;7.66;51.56
46778;BME280;32536;47.128;8.746;2023-04-09T01:43:23;91968.97;;;7.63;51.98
46778;BME280;32536;47.128;8.746;2023-04-09T01:45:52;91971.63;;;7.63;52.19
46778;BME280;32536;47.128;8.746;2023-04-09T01:48:20;91968.56;;;7.65;52.23
46778;BME280;32536;47.128;8.746;2023-04-09T01:50:48;91972.38;;;7.64;51.85
46778;BME280;32536;47.128;8.746;2023-04-09T01:53:16;91970.09;;;7.59;52.63
46778;BME280;32536;47.128;8.746;2023-04-09T01:55:43;91967.78;;;7.50;52.33
46778;BME280;32536;47.128;8.746;2023-04-09T01:58:10;91969.69;;;7.46;52.38
46778;BME280;32536;47.128;8.746;2023-04-09T02:00:39;91965.09;;;7.39;51.82
46778;BME280;32536;47.128;8.746;2023-04-09T02:05:56;91973.81;;;7.40;52.23
46778;BME280;32536;47.128;8.746;2023-04-09T02:08:29;91969.66;;;7.42;51.60
46778;BME280;32536;47.128;8.746;2023-04-09T02:11:02;91968.91;;;7.42;51.92
46778;BME280;32536;47.128;8.746;2023-04-09T02:13:31;91963.56;;;7.42;51.93
46778;BME280;32536;47.128;8.746;2023-04-09T02:16:00;91963.97;;;7.44;51.63
46778;BME280;32536;47.128;8.746;2023-04-09T02:18:28;91961.28;;;7.44;51.54
46778;BME280;32536;47.128;8.746;2023-04-09T02:20:56;91961.28;;;7.40;52.02
46778;BME280;32536;47.128;8.746;2023-04-09T02:23:24;91964.31;;;7.39;51.52
46778;BME280;32536;47.128;8.746;2023-04-09T02:25:52;91972.69;;;7.37;51.66
46778;BME280;32536;47.128;8.746;2023-04-09T02:28:19;91965.81;;;7.36;52.21
46778;BME280;32536;47.128;8.746;2023-04-09T02:30:46;91967.00;;;7.39;52.48
46778;BME280;32536;47.128;8.746;2023-04-09T02:33:13;91971.53;;;7.38;52.61
46778;BME280;32536;47.128;8.746;2023-04-09T02:35:39;91967.34;;;7.37;51.80
46778;BME280;32536;47.128;8.746;2023-04-09T02:38:08;91970.00;;;7.37;52.32
46778;BME280;32536;47.128;8.746;2023-04-09T02:40:40;91965.47;;;7.41;52.19
46778;BME280;32536;47.128;8.746;2023-04-09T02:43:08;91964.34;;;7.46;51.82
46778;BME280;32536;47.128;8.746;2023-04-09T02:45:35;91972.34;;;7.49;51.15
46778;BME280;32536;47.128;8.746;2023-04-09T02:48:02;91960.53;;;7.47;52.06
46778;BME280;32536;47.128;8.746;2023-04-09T02:50:29;91970.06;;;7.48;51.56
46778;BME280;32536;47.128;8.746;2023-04-09T02:52:55;91963.19;;;7.50;51.74
46778;BME280;32536;47.128;8.746;2023-04-09T02:55:22;91967.78;;;7.50;51.58
46778;BME280;32536;47.128;8.746;2023-04-09T02:57:49;91962.44;;;7.50;51.74
46778;BME280;32536;47.128;8.746;2023-04-09T03:00:16;91959.00;;;7.49;51.44
46778;BME280;32536;47.128;8.746;2023-04-09T03:02:42;91963.97;;;7.47;51.86
46778;BME280;32536;47.128;8.746;2023-04-09T03:05:09;91960.16;;;7.45;51.34
46778;BME280;32536;47.128;8.746;2023-04-09T03:07:36;91958.22;;;7.42;51.71
46778;BME280;32536;47.128;8.746;2023-04-09T03:10:03;91963.94;;;7.36;52.03
46778;BME280;32536;47.128;8.746;2023-04-09T03:12:30;91961.66;;;7.35;52.12
46778;BME280;32536;47.128;8.746;2023-04-09T03:14:56;91961.66;;;7.35;51.76
46778;BME280;32536;47.128;8.746;2023-04-09T03:17:23;91965.44;;;7.34;51.75
46778;BME280;32536;47.128;8.746;2023-04-09T03:19:52;91959.34;;;7.37;51.61
46778;BME280;32536;47.128;8.746;2023-04-09T03:22:18;91962.00;;;7.37;51.66
46778;BME280;32536;47.128;8.746;2023-04-09T03:24:45;91955.53;;;7.31;51.36
46778;BME280;32536;47.128;8.746;2023-04-09T03:27:12;91955.13;;;7.25;51.48
46778;BME280;32536;47.128;8.746;2023-04-09T03:29:39;91954.34;;;7.21;51.45
46778;BME280;32536;47.128;8.746;2023-04-09T03:32:05;91957.78;;;7.18;52.16
46778;BME280;32536;47.128;8.746;2023-04-09T03:34:32;91961.97;;;7.19;51.56
46778;BME280;32536;47.128;8.746;2023-04-09T03:36:59;91954.72;;;7.16;51.75
46778;BME280;32536;47.128;8.746;2023-04-09T03:39:25;91956.97;;;7.10;51.33
46778;BME280;32536;47.128;8.746;2023-04-09T03:41:56;91961.53;;;7.06;51.89
46778;BME280;32536;47.128;8.746;2023-04-09T03:44:23;91956.19;;;7.06;51.12
46778;BME280;32536;47.128;8.746;2023-04-09T03:46:50;91961.91;;;7.04;51.39
46778;BME280;32536;47.128;8.746;2023-04-09T03:49:17;91972.91;;;7.03;51.81
46778;BME280;32536;47.128;8.746;2023-04-09T03:51:44;91960.34;;;7.00;51.65
46778;BME280;32536;47.128;8.746;2023-04-09T03:54:10;91966.78;;;6.95;51.51
46778;BME280;32536;47.128;8.746;2023-04-09T03:56:37;91960.28;;;6.89;51.89
46778;BME280;32536;47.128;8.746;2023-04-09T03:59:04;91961.44;;;6.88;51.33
46778;BME280;32536;47.128;8.746;2023-04-09T04:01:31;91959.16;;;6.86;51.53
46778;BME280;32536;47.128;8.746;2023-04-09T04:03:57;91964.47;;;6.86;51.69
46778;BME280;32536;47.128;8.746;2023-04-09T04:06:24;91961.78;;;6.83;51.40
46778;BME280;32536;47.128;8.746;2023-04-09T04:08:52;91961.00;;;6.79;51.81
46778;BME280;32536;47.128;8.746;2023-04-09T04:11:19;91964.00;;;6.73;51.61
46778;BME280;32536;47.128;8.746;2023-04-09T04:13:46;91959.81;;;6.72;52.09
46778;BME280;32536;47.128;8.746;2023-04-09T04:16:12;91968.19;;;6.75;51.75
46778;BME280;32536;47.128;8.746;2023-04-09T04:18:39;91962.09;;;6.70;51.36
46778;BME280;32536;47.128;8.746;2023-04-09T04:21:11;91961.69;;;6.65;52.37
46778;BME280;32536;47.128;8.746;2023-04-09T04:23:39;91963.63;;;6.68;51.38
46778;BME280;32536;47.128;8.746;2023-04-09T04:26:07;91964.34;;;6.65;51.55
46778;BME280;32536;47.128;8.746;2023-04-09T04:28:36;91955.19;;;6.59;51.70
46778;BME280;32536;47.128;8.746;2023-04-09T04:31:10;91963.53;;;6.57;52.19
46778;BME280;32536;47.128;8.746;2023-04-09T04:33:39;91966.56;;;6.59;51.81
46778;BME280;32536;47.128;8.746;2023-04-09T04:36:15;91971.91;;;6.55;53.32
46778;BME280;32536;47.128;8.746;2023-04-09T04:38:42;91961.22;;;6.48;51.51
46778;BME280;32536;47.128;8.746;2023-04-09T04:41:09;91970.28;;;6.40;51.63
46778;BME280;32536;47.128;8.746;2023-04-09T04:43:36;91966.44;;;6.34;51.76
46778;BME280;32536;47.128;8.746;2023-04-09T04:46:03;91959.53;;;6.29;52.48
46778;BME280;32536;47.128;8.746;2023-04-09T04:48:30;91959.88;;;6.24;51.98
46778;BME280;32536;47.128;8.746;2023-04-09T04:50:59;91969.34;;;6.18;52.40
46778;BME280;32536;47.128;8.746;2023-04-09T04:53:26;91959.03;;;6.13;52.42
46778;BME280;32536;47.128;8.746;2023-04-09T04:55:53;91962.44;;;6.09;52.37
46778;BME280;32536;47.128;8.746;2023-04-09T04:58:20;91957.09;;;6.06;52.62
46778;BME280;32536;47.128;8.746;2023-04-09T05:00:46;91958.59;;;6.03;52.63
46778;BME280;32536;47.128;8.746;2023-04-09T05:03:13;91964.28;;;6.02;52.74
46778;BME280;32536;47.128;8.746;2023-04-09T05:05:40;91965.44;;;6.04;52.24
46778;BME280;32536;47.128;8.746;2023-04-09T05:08:07;91962.81;;;6.08;52.67
46778;BME280;32536;47.128;8.746;2023-04-09T05:10:33;91964.69;;;6.07;52.91
46778;BME280;32536;47.128;8.746;2023-04-09T05:13:00;91963.53;;;6.05;53.20
46778;BME280;32536;47.128;8.746;2023-04-09T05:15:27;91959.72;;;6.02;53.07
46778;BME280;32536;47.128;8.746;2023-04-09T05:17:53;91965.81;;;6.06;52.99
46778;BME280;32536;47.128;8.746;2023-04-09T05:20:20;91972.28;;;6.05;53.15
46778;BME280;32536;47.128;8.746;2023-04-09T05:22:47;91970.38;;;6.06;53.18
46778;BME280;32536;47.128;8.746;2023-04-09T05:25:14;91977.94;;;6.04;53.06
46778;BME280;32536;47.128;8.746;2023-04-09T05:27:40;91973.72;;;5.99;53.17
46778;BME280;32536;47.128;8.746;2023-04-09T05:30:07;91975.16;;;5.93;53.92
46778;BME280;32536;47.128;8.746;2023-04-09T05:32:34;91973.63;;;5.88;53.69
46778;BME280;32536;47.128;8.746;2023-04-09T05:35:01;91970.97;;;5.88;53.56
46778;BME280;32536;47.128;8.746;2023-04-09T05:37:28;91971.38;;;5.94;53.74
46778;BME280;32536;47.128;8.746;2023-04-09T05:39:56;91972.16;;;5.95;53.52
46778;BME280;32536;47.128;8.746;2023-04-09T05:42:22;91971.78;;;5.96;53.78
46778;BME280;32536;47.128;8.746;2023-04-09T05:44:49;91971.41;;;5.98;53.66
46778;BME280;32536;47.128;8.746;2023-04-09T05:47:16;91966.16;;;6.01;53.50
46778;BME280;32536;47.128;8.746;2023-04-09T05:49:43;91970.34;;;6.02;53.46
46778;BME280;32536;47.128;8.746;2023-04-09T05:52:09;91969.19;;;6.00;53.50
46778;BME280;32536;47.128;8.746;2023-04-09T05:54:36;91967.22;;;5.97;53.77
46778;BME280;32536;47.128;8.746;2023-04-09T05:57:03;91971.38;;;5.94;53.92
46778;BME280;32536;47.128;8.746;2023-04-09T05:59:29;91970.25;;;5.95;53.90
46778;BME280;32536;47.128;8.746;2023-04-09T06:01:56;91972.91;;;5.95;54.35
46778;BME280;32536;47.128;8.746;2023-04-09T06:04:23;91967.66;;;5.99;54.03
46778;BME280;32536;47.128;8.746;2023-04-09T06:06:49;91979.09;;;6.03;54.28
46778;BME280;32536;47.128;8.746;2023-04-09T06:09:16;91979.47;;;6.05;54.05
46778;BME280;32536;47.128;8.746;2023-04-09T06:11:43;91979.53;;;6.08;54.15
46778;BME280;32536;47.128;8.746;2023-04-09T06:14:09;91979.94;;;6.11;54.01
46778;BME280;32536;47.128;8.746;2023-04-09T06:16:41;91983.38;;;6.15;53.69
46778;BME280;32536;47.128;8.746;2023-04-09T06:19:07;91983.03;;;6.20;53.79
46778;BME280;32536;47.128;8.746;2023-04-09T06:21:34;91985.72;;;6.23;53.48
46778;BME280;32536;47.128;8.746;2023-04-09T06:24:01;91985.41;;;6.29;53.90
46778;BME280;32536;47.128;8.746;2023-04-09T06:26:27;91987.72;;;6.34;54.34
46778;BME280;32536;47.128;8.746;2023-04-09T06:28:54;91982.72;;;6.32;54.21
46778;BME280;32536;47.128;8.746;2023-04-09T06:31:21;91981.97;;;6.32;54.45
46778;BME280;32536;47.128;8.746;2023-04-09T06:33:47;91980.81;;;6.25;54.13
46778;BME280;32536;47.128;8.746;2023-04-09T06:36:14;91976.97;;;6.23;53.90
46778;BME280;32536;47.128;8.746;2023-04-09T06:38:41;91982.28;;;6.19;54.19
46778;BME280;32536;47.128;8.746;2023-04-09T06:41:07;91978.09;;;6.22;54.27
46778;BME280;32536;47.128;8.746;2023-04-09T06:43:36;91978.13;;;6.25;54.02
46778;BME280;32536;47.128;8.746;2023-04-09T06:46:03;91979.28;;;6.28;53.89
46778;BME280;32536;47.128;8.746;2023-04-09T06:48:29;91979.28;;;6.28;54.64
46778;BME280;32536;47.128;8.746;2023-04-09T06:50:56;91980.06;;;6.29;53.87
46778;BME280;32536;47.128;8.746;2023-04-09T06:53:23;91976.25;;;6.30;54.39
46778;BME280;32536;47.128;8.746;2023-04-09T06:55:49;91983.50;;;6.29;54.00
46778;BME280;32536;47.128;8.746;2023-04-09T06:58:16;91983.13;;;6.34;53.87
46778;BME280;32536;47.128;8.746;2023-04-09T07:00:43;91985.44;;;6.39;53.82
46778;BME280;32536;47.128;8.746;2023-04-09T07:03:09;91982.47;;;6.45;54.29
46778;BME280;32536;47.128;8.746;2023-04-09T07:05:36;91978.31;;;6.47;53.93
46778;BME280;32536;47.128;8.746;2023-04-09T07:08:03;91972.56;;;6.45;54.08
46778;BME280;32536;47.128;8.746;2023-04-09T07:10:30;91973.72;;;6.44;54.52
46778;BME280;32536;47.128;8.746;2023-04-09T07:12:56;91979.06;;;6.48;54.48
46778;BME280;32536;47.128;8.746;2023-04-09T07:15:23;91968.41;;;6.48;54.53
46778;BME280;32536;47.128;8.746;2023-04-09T07:17:50;91967.66;;;6.47;55.01
46778;BME280;32536;47.128;8.746;2023-04-09T07:20:16;91968.03;;;6.49;54.58
46778;BME280;32536;47.128;8.746;2023-04-09T07:22:43;91960.50;;;6.59;53.95
46778;BME280;32536;47.128;8.746;2023-04-09T07:25:10;91964.75;;;6.70;53.52
46778;BME280;32536;47.128;8.746;2023-04-09T07:27:37;91966.72;;;6.81;54.08
46778;BME280;32536;47.128;8.746;2023-04-09T07:30:04;91965.25;;;6.91;54.18
46778;BME280;32536;47.128;8.746;2023-04-09T07:32:31;91964.19;;;7.06;53.67
46778;BME280;32536;47.128;8.746;2023-04-09T07:34:58;91960.81;;;7.20;53.32
46778;BME280;32536;47.128;8.746;2023-04-09T07:37:25;91960.13;;;7.34;53.73
46778;BME280;32536;47.128;8.746;2023-04-09T07:39:52;91955.19;;;7.47;53.38
46778;BME280;32536;47.128;8.746;2023-04-09T07:42:18;91959.41;;;7.59;53.13
46778;BME280;32536;47.128;8.746;2023-04-09T07:44:45;91962.50;;;7.72;53.22
46778;BME280;32536;47.128;8.746;2023-04-09T07:47:12;91967.09;;;7.82;52.98
46778;BME280;32536;47.128;8.746;2023-04-09T07:49:39;91967.88;;;7.93;53.46
46778;BME280;32536;47.128;8.746;2023-04-09T07:52:06;91967.88;;;8.04;53.39
46778;BME280;32536;47.128;8.746;2023-04-09T07:54:33;91957.22;;;8.15;53.27
46778;BME280;32536;47.128;8.746;2023-04-09T07:57:00;91956.47;;;8.25;53.05
46778;BME280;32536;47.128;8.746;2023-04-09T07:59:27;91962.56;;;8.37;52.89
46778;BME280;32536;47.128;8.746;2023-04-09T08:01:55;91958.41;;;8.46;53.25
46778;BME280;32536;47.128;8.746;2023-04-09T08:04:22;91964.88;;;8.56;52.97
46778;BME280;32536;47.128;8.746;2023-04-09T08:06:49;91959.91;;;8.65;53.40
46778;BME280;32536;47.128;8.746;2023-04-09T08:09:16;91956.84;;;8.74;53.13
46778;BME280;32536;47.128;8.746;2023-04-09T08:11:44;91959.88;;;8.80;52.99
46778;BME280;32536;47.128;8.746;2023-04-09T08:14:12;91958.72;;;8.88;53.03
46778;BME280;32536;47.128;8.746;2023-04-09T08:16:42;91956.81;;;9.00;53.64
46778;BME280;32536;47.128;8.746;2023-04-09T08:19:11;91955.19;;;9.20;54.33
46778;BME280;32536;47.128;8.746;2023-04-09T08:21:40;91953.91;;;9.57;54.82
46778;BME280;32536;47.128;8.746;2023-04-09T08:24:11;91968.56;;;10.02;54.43
46778;BME280;32536;47.128;8.746;2023-04-09T08:26:38;91961.41;;;10.44;54.02
46778;BME280;32536;47.128;8.746;2023-04-09T08:29:07;91967.28;;;10.73;52.86
46778;BME280;32536;47.128;8.746;2023-04-09T08:31:34;91962.94;;;10.87;52.22
46778;BME280;32536;47.128;8.746;2023-04-09T08:34:02;91971.00;;;10.87;51.94
46778;BME280;32536;47.128;8.746;2023-04-09T08:36:29;91973.72;;;10.83;52.17
46778;BME280;32536;47.128;8.746;2023-04-09T08:38:57;91974.16;;;10.78;51.47
46778;BME280;32536;47.128;8.746;2023-04-09T08:41:27;91974.63;;;10.66;52.02
46778;BME280;32536;47.128;8.746;2023-04-09T08:43:54;91986.97;;;10.56;51.67
46778;BME280;32536;47.128;8.746;2023-04-09T08:46:22;91979.81;;;10.35;51.73
46778;BME280;32536;47.128;8.746;2023-04-09T08:48:50;91988.75;;;10.14;51.98
46778;BME280;32536;47.128;8.746;2023-04-09T08:51:19;91993.47;;;9.91;52.54
46778;BME280;32536;47.128;8.746;2023-04-09T08:53:48;91989.72;;;9.78;52.38
46778;BME280;32536;47.128;8.746;2023-04-09T08:56:21;91992.44;;;9.71;52.42
46778;BME280;32536;47.128;8.746;2023-04-09T08:58:48;91996.28;;;9.63;52.36
46778;BME280;32536;47.128;8.746;2023-04-09T09:01:23;91996.00;;;9.42;52.69
46778;BME280;32536;47.128;8.746;2023-04-09T09:04:02;91993.75;;;9.26;53.08
46778;BME280;32536;47.128;8.746;2023-04-09T09:06:34;91996.06;;;9.24;53.01
46778;BME280;32536;47.128;8.746;2023-04-09T09:11:45;91996.06;;;9.21;52.98
46778;BME280;32536;47.128;8.746;2023-04-09T09:14:15;92002.16;;;9.25;52.95
46778;BME280;32536;47.128;8.746;2023-04-09T09:17:02;91999.06;;;9.30;53.42
46778;BME280;32536;47.128;8.746;2023-04-09T09:19:31;92006.31;;;9.37;52.98
46778;BME280;32536;47.128;8.746;2023-04-09T09:22:00;91997.56;;;9.36;53.10
46778;BME280;32536;47.128;8.746;2023-04-09T09:24:29;92000.97;;;9.37;52.94
46778;BME280;32536;47.128;8.746;2023-04-09T09:26:57;91999.84;;;9.38;52.99
46778;BME280;32536;47.128;8.746;2023-04-09T09:29:24;91997.50;;;9.43;52.85
46778;BME280;32536;47.128;8.746;2023-04-09T09:31:52;92001.34;;;9.46;52.84
46778;BME280;32536;47.128;8.746;2023-04-09T09:34:22;92002.06;;;9.50;52.56
46778;BME280;32536;47.128;8.746;2023-04-09T09:36:49;92002.81;;;9.51;52.44
46778;BME280;32536;47.128;8.746;2023-04-09T09:39:16;92004.75;;;9.50;52.62
46778;BME280;32536;47.128;8.746;2023-04-09T09:41:44;92003.22;;;9.49;52.73
46778;BME280;32536;47.128;8.746;2023-04-09T09:44:29;92004.00;;;9.46;52.85
46778;BME280;32536;47.128;8.746;2023-04-09T09:46:57;92005.16;;;9.41;52.80
46778;BME280;32536;47.128;8.746;2023-04-09T09:49:25;91997.16;;;9.38;53.11
46778;BME280;32536;47.128;8.746;2023-04-09T09:51:52;92005.16;;;9.41;53.28
46778;BME280;32536;47.128;8.746;2023-04-09T09:54:24;92002.84;;;9.47;53.05
46778;BME280;32536;47.128;8.746;2023-04-09T09:56:51;92003.59;;;9.51;52.92
46778;BME280;32536;47.128;8.746;2023-04-09T09:59:22;91996.72;;;9.54;53.12
46778;BME280;32536;47.128;8.746;2023-04-09T10:01:58;92007.44;;;9.47;52.87
46778;BME280;32536;47.128;8.746;2023-04-09T10:04:28;92005.91;;;9.42;52.96
46778;BME280;32536;47.128;8.746;2023-04-09T10:06:55;92010.50;;;9.41;52.91
46778;BME280;32536;47.128;8.746;2023-04-09T10:09:25;92007.81;;;9.45;53.12
46778;BME280;32536;47.128;8.746;2023-04-09T10:11:53;92014.31;;;9.48;52.70
46778;BME280;32536;47.128;8.746;2023-04-09T10:14:20;92008.56;;;9.45;53.04
46778;BME280;32536;47.128;8.746;2023-04-09T10:16:48;92009.34;;;9.46;52.94
46778;BME280;32536;47.128;8.746;2023-04-09T10:19:14;92010.88;;;9.43;52.92
46778;BME280;32536;47.128;8.746;2023-04-09T10:22:06;92005.91;;;9.42;53.01
46778;BME280;32536;47.128;8.746;2023-04-09T10:24:36;92012.78;;;9.50;53.15
46778;BME280;32536;47.128;8.746;2023-04-09T10:27:10;92013.91;;;9.53;52.75
46778;BME280;32536;47.128;8.746;2023-04-09T10:29:48;92005.88;;;9.56;52.81
46778;BME280;32536;47.128;8.746;2023-04-09T10:32:22;92010.44;;;9.63;52.87
46778;BME280;32536;47.128;8.746;2023-04-09T10:34:56;92003.53;;;9.66;52.92
46778;BME280;32536;47.128;8.746;2023-04-09T10:37:25;91999.31;;;9.72;53.21
46778;BME280;32536;47.128;8.746;2023-04-09T10:39:53;91997.75;;;9.78;52.74
46778;BME280;32536;47.128;8.746;2023-04-09T10:42:41;91996.56;;;9.86;53.39
46778;BME280;32536;47.128;8.746;2023-04-09T10:45:10;91995.38;;;9.91;52.53
46778;BME280;32536;47.128;8.746;2023-04-09T10:47:40;91995.00;;;9.92;52.72
46778;BME280;32536;47.128;8.746;2023-04-09T10:50:23;91998.00;;;9.98;52.91
46778;BME280;32536;47.128;8.746;2023-04-09T10:52:56;92001.81;;;10.04;52.47
46778;BME280;32536;47.128;8.746;2023-04-09T10:58:04;91987.91;;;10.24;52.83
46778;BME280;32536;47.128;8.746;2023-04-09T11:00:42;91989.38;;;10.32;52.41
46778;BME280;32536;47.128;8.746;2023-04-09T11:06:05;91984.78;;;10.40;52.44
46778;BME280;32536;47.128;8.746;2023-04-09T11:08:35;91982.84;;;10.44;52.14
46778;BME280;32536;47.128;8.746;2023-04-09T11:11:03;91977.84;;;10.50;52.51
46778;BME280;32536;47.128;8.746;2023-04-09T11:13:31;91976.28;;;10.52;52.46
46778;BME280;32536;47.128;8.746;2023-04-09T11:15:59;91978.94;;;10.56;52.57
46778;BME280;32536;47.128;8.746;2023-04-09T11:18:29;91979.25;;;10.62;52.02
46778;BME280;32536;47.128;8.746;2023-04-09T11:20:57;91975.00;;;10.64;52.13
46778;BME280;32536;47.128;8.746;2023-04-09T11:23:27;91981.44;;;10.74;52.54
46778;BME280;32536;47.128;8.746;2023-04-09T11:25:54;91978.34;;;10.79;51.93
46778;BME280;32536;47.128;8.746;2023-04-09T11:28:22;91986.69;;;10.85;52.10
46778;BME280;32536;47.128;8.746;2023-04-09T11:30:50;91978.25;;;10.90;51.79
46778;BME280;32536;47.128;8.746;2023-04-09T11:33:17;91980.13;;;10.93;52.04
46778;BME280;32536;47.128;8.746;2023-04-09T11:35:44;91981.25;;;10.96;52.10
46778;BME280;32536;47.128;8.746;2023-04-09T11:38:11;91983.47;;;11.01;51.85
46778;BME280;32536;47.128;8.746;2023-04-09T11:40:42;91987.41;;;10.93;50.81
46778;BME280;32536;47.128;8.746;2023-04-09T11:43:16;91977.09;;;10.87;51.79
46778;BME280;32536;47.128;8.746;2023-04-09T11:45:43;91977.50;;;10.86;51.94
46778;BME280;32536;47.128;8.746;2023-04-09T11:48:12;91979.41;;;10.89;51.90
46778;BME280;32536;47.128;8.746;2023-04-09T11:50:40;91970.97;;;10.91;51.80
46778;BME280;32536;47.128;8.746;2023-04-09T11:53:21;91980.63;;;10.81;52.23
46778;BME280;32536;47.128;8.746;2023-04-09T11:55:50;91983.34;;;10.77;52.01
46778;BME280;32536;47.128;8.746;2023-04-09T11:58:21;91978.38;;;10.76;51.95
46778;BME280;32536;47.128;8.746;2023-04-09T12:00:53;91988.25;;;10.82;52.48
46778;BME280;32536;47.128;8.746;2023-04-09T12:03:27;91983.25;;;10.88;51.90
46778;BME280;32536;47.128;8.746;2023-04-09T12:05:59;91982.03;;;10.96;51.70
46778;BME280;32536;47.128;8.746;2023-04-09T12:08:26;91983.84;;;11.03;51.65
46778;BME280;32536;47.128;8.746;2023-04-09T12:10:53;91977.38;;;11.00;51.85
46778;BME280;32536;47.128;8.746;2023-04-09T12:13:20;91980.03;;;11.04;52.10
46778;BME280;32536;47.128;8.746;2023-04-09T12:15:47;91981.50;;;11.09;51.62
46778;BME280;32536;47.128;8.746;2023-04-09T12:18:15;91986.41;;;11.17;51.35
46778;BME280;32536;47.128;8.746;2023-04-09T12:20:42;91976.34;;;11.25;51.79
46778;BME280;32536;47.128;8.746;2023-04-09T12:23:11;91977.84;;;11.30;51.36
46778;BME280;32536;47.128;8.746;2023-04-09T12:25:40;91977.41;;;11.35;51.64
46778;BME280;32536;47.128;8.746;2023-04-09T12:28:10;91975.78;;;11.41;51.79
46778;BME280;32536;47.128;8.746;2023-04-09T12:30:43;91979.91;;;11.49;51.20
46778;BME280;32536;47.128;8.746;2023-04-09T12:33:09;91980.66;;;11.53;51.13
46778;BME280;32536;47.128;8.746;2023-04-09T12:35:36;91973.75;;;11.52;50.72
46778;BME280;32536;47.128;8.746;2023-04-09T12:38:03;91974.56;;;11.49;51.44
46778;BME280;32536;47.128;8.746;2023-04-09T12:40:30;91976.06;;;11.50;51.20
46778;BME280;32536;47.128;8.746;2023-04-09T12:42:57;91974.47;;;11.57;51.22
46778;BME280;32536;47.128;8.746;2023-04-09T12:45:23;91975.53;;;11.63;51.01
46778;BME280;32536;47.128;8.746;2023-04-09T12:47:50;91975.09;;;11.68;51.37
46778;BME280;32536;47.128;8.746;2023-04-09T12:50:17;91978.81;;;11.78;51.28
46778;BME280;32536;47.128;8.746;2023-04-09T12:52:44;91975.38;;;11.77;51.07
46778;BME280;32536;47.128;8.746;2023-04-09T12:55:12;91981.53;;;11.74;51.20
46778;BME280;32536;47.128;8.746;2023-04-09T12:57:42;91977.69;;;11.75;51.07
46778;BME280;32536;47.128;8.746;2023-04-09T13:00:10;91971.66;;;11.67;50.63
46778;BME280;32536;47.128;8.746;2023-04-09T13:02:37;91975.81;;;11.72;50.85
46778;BME280;32536;47.128;8.746;2023-04-09T13:05:32;91978.84;;;11.74;51.10
46778;BME280;32536;47.128;8.746;2023-04-09T13:08:19;91969.59;;;11.79;50.43
46778;BME280;32536;47.128;8.746;2023-04-09T13:10:45;91965.66;;;11.87;50.69
46778;BME280;32536;47.128;8.746;2023-04-09T13:13:12;91977.03;;;11.98;51.23
46778;BME280;32536;47.128;8.746;2023-04-09T13:15:40;91971.56;;;12.06;50.91
46778;BME280;32536;47.128;8.746;2023-04-09T13:18:11;91964.94;;;12.14;49.77
46778;BME280;32536;47.128;8.746;2023-04-09T13:20:38;91966.41;;;12.19;50.68
46778;BME280;32536;47.128;8.746;2023-04-09T13:23:05;91967.22;;;12.15;50.50
46778;BME280;32536;47.128;8.746;2023-04-09T13:25:31;91960.69;;;12.16;50.75
46778;BME280;32536;47.128;8.746;2023-04-09T13:27:58;91958.34;;;12.19;50.42
46778;BME280;32536;47.128;8.746;2023-04-09T13:30:25;91961.75;;;12.23;50.68
46778;BME280;32536;47.128;8.746;2023-04-09T13:32:52;91958.16;;;12.33;50.52